This is the latest recevied weather packets stored in our database for station/object KP4OZ. If no packets are shown the sender has not sent any weather packets the latest 10 day(s).
| Time | Temp. | Humidity | Pressure | Rain* | Wind** | Luminosity | Snow |
|---|---|---|---|---|---|---|---|
| 1777989083 | 30° C | 65% | 1017.8 hPa | 0 mm | - | - | - |
| 1777988778 | 30° C | 66% | 1017.8 hPa | 0 mm | - | - | - |
| 1777988476 | 30.56° C | 64% | 1017.7 hPa | 0 mm | - | - | - |
| 1777988173 | 30.56° C | 64% | 1017.8 hPa | 0 mm | - | - | - |
| 1777987869 | 30° C | 64% | 1017.8 hPa | 0 mm | - | - | - |
| 1777987565 | 30.56° C | 64% | 1017.7 hPa | 0 mm | - | - | - |
| 1777987263 | 30.56° C | 64% | 1017.7 hPa | 0 mm | - | - | - |
| 1777986960 | 30.56° C | 64% | 1017.7 hPa | 0 mm | - | - | - |
| 1777986658 | 29.44° C | 68% | 1017.6 hPa | 0 mm | - | - | - |
| 1777986355 | 30° C | 67% | 1017.4 hPa | 0 mm | - | - | - |
| 1777986054 | 30° C | 66% | 1017.5 hPa | 0 mm | - | - | - |
| 1777985750 | 30° C | 67% | 1017.5 hPa | 0 mm | - | - | - |
| 1777985447 | 30° C | 68% | 1017.7 hPa | 0 mm | - | - | - |
| 1777985143 | 30° C | 67% | 1017.8 hPa | 0 mm | - | - | - |
| 1777984839 | 29.44° C | 69% | 1017.6 hPa | 0 mm | - | - | - |
| 1777984536 | 29.44° C | 70% | 1017.6 hPa | 0 mm | - | - | - |
| 1777984232 | 28.89° C | 71% | 1017.6 hPa | 0 mm | - | - | - |
| 1777983930 | 28.89° C | 71% | 1017.7 hPa | 0 mm | - | - | - |
| 1777983626 | 29.44° C | 72% | 1017.5 hPa | 0 mm | - | - | - |
| 1777983323 | 28.89° C | 73% | 1017.7 hPa | 0 mm | - | - | - |
| 1777983019 | 28.89° C | 74% | 1017.7 hPa | 0 mm | - | - | - |
| 1777982716 | 28.89° C | 74% | 1017.5 hPa | 0 mm | - | - | - |
| 1777982411 | 28.33° C | 74% | 1017.4 hPa | 0 mm | - | - | - |
| 1777982106 | 28.33° C | 74% | 1017.4 hPa | 0 mm | - | - | - |
| 1777981804 | 28.89° C | 74% | 1017.2 hPa | 0 mm | - | - | - |
* Rain latest hour (hover to see other rain measurements)
** Current wind speed in m/s (hover to see current wind gust speed)